Time;durP1;ratioP1;P1;durP2;ratioP2;P2;SDS_P1;SDS_P2;PMS_P1;PMS_P2;Temp;Humidity;BMP_temperature;BMP_pressure;BME280_temperature;BME280_humidity;BME280_pressure;Samples;Min_cycle;Max_cycle;Signal;HPM_P1;HPM_P2
2021/10/09 00:01:58;;;;;;;2.28;2.05;;;;;;;;;;5109518;28;20401;-50
2021/10/09 00:04:24;;;;;;;3.17;2.35;;;;;;;;;;5110652;28;20115;-47
2021/10/09 00:06:51;;;;;;;3.42;2.05;;;;;;;;;;5110631;28;20024;-49
2021/10/09 00:09:17;;;;;;;3.03;2.28;;;;;;;;;;5110704;28;20057;-48
2021/10/09 00:11:43;;;;;;;2.95;2.22;;;;;;;;;;5111117;28;20110;-51
2021/10/09 00:14:10;;;;;;;2.40;1.90;;;;;;;;;;5110514;28;20051;-50
2021/10/09 00:16:37;;;;;;;2.65;2.10;;;;;;;;;;5110523;28;20409;-47
2021/10/09 00:19:03;;;;;;;3.08;2.35;;;;;;;;;;5110496;28;20471;-48
2021/10/09 00:21:29;;;;;;;3.10;2.30;;;;;;;;;;5110223;28;20509;-50
2021/10/09 00:23:57;;;;;;;3.55;2.55;;;;;;;;;;5110465;28;20028;-48
2021/10/09 00:26:24;;;;;;;3.78;2.30;;;;;;;;;;5110299;28;20121;-47
2021/10/09 00:28:50;;;;;;;3.05;2.22;;;;;;;;;;5110191;28;20122;-48
2021/10/09 00:31:16;;;;;;;3.72;2.63;;;;;;;;;;5110698;28;20169;-50
2021/10/09 00:33:42;;;;;;;2.38;2.03;;;;;;;;;;5110755;28;20027;-48
2021/10/09 00:36:08;;;;;;;2.97;2.20;;;;;;;;;;5110059;28;20015;-48
2021/10/09 00:38:34;;;;;;;2.40;2.03;;;;;;;;;;5110096;28;20031;-50
2021/10/09 00:41:00;;;;;;;2.38;1.98;;;;;;;;;;5110014;28;20027;-49
2021/10/09 00:43:27;;;;;;;2.92;2.00;;;;;;;;;;5109948;28;20394;-51
2021/10/09 00:45:55;;;;;;;2.25;1.80;;;;;;;;;;5110252;28;20031;-49
2021/10/09 00:48:21;;;;;;;3.03;2.08;;;;;;;;;;5109850;28;20031;-46
2021/10/09 00:50:47;;;;;;;2.78;2.20;;;;;;;;;;5110165;28;20028;-47
2021/10/09 00:53:13;;;;;;;3.42;2.10;;;;;;;;;;5110480;28;20028;-46
2021/10/09 00:55:40;;;;;;;2.95;2.05;;;;;;;;;;5109808;28;20046;-47
2021/10/09 00:58:06;;;;;;;2.33;1.92;;;;;;;;;;5109745;28;20023;-47
2021/10/09 01:00:32;;;;;;;2.88;2.03;;;;;;;;;;5109592;28;20394;-47
2021/10/09 01:02:59;;;;;;;3.22;2.20;;;;;;;;;;5109693;28;20097;-50
2021/10/09 01:05:26;;;;;;;2.40;2.00;;;;;;;;;;5109528;28;20031;-47
2021/10/09 01:07:52;;;;;;;3.58;2.25;;;;;;;;;;5109512;28;20024;-48
2021/10/09 01:10:18;;;;;;;1.80;1.65;;;;;;;;;;5109981;28;20026;-48
2021/10/09 01:12:44;;;;;;;2.40;2.20;;;;;;;;;;5110084;28;20030;-47
2021/10/09 01:15:17;;;;;;;2.28;1.90;;;;;;;;;;5109455;28;20020;-47
2021/10/09 01:17:43;;;;;;;2.92;2.05;;;;;;;;;;5108857;28;20048;-48
2021/10/09 01:20:11;;;;;;;3.33;2.25;;;;;;;;;;5109527;28;20583;-47
2021/10/09 01:22:37;;;;;;;3.70;2.35;;;;;;;;;;5109581;28;20092;-48
2021/10/09 01:25:03;;;;;;;2.58;2.17;;;;;;;;;;5109322;28;20549;-46
2021/10/09 01:27:29;;;;;;;2.58;2.15;;;;;;;;;;5109347;28;20031;-47
2021/10/09 01:29:55;;;;;;;2.85;2.25;;;;;;;;;;5109036;28;20035;-47
2021/10/09 01:32:21;;;;;;;2.35;2.08;;;;;;;;;;5108876;28;20020;-48
2021/10/09 01:34:47;;;;;;;2.75;2.13;;;;;;;;;;5109794;28;20020;-48
2021/10/09 01:37:13;;;;;;;2.63;2.03;;;;;;;;;;5109076;28;20432;-51
2021/10/09 01:39:43;;;;;;;2.92;2.00;;;;;;;;;;5109157;28;20016;-47
2021/10/09 01:42:09;;;;;;;3.15;2.03;;;;;;;;;;5090833;28;20455;-47
2021/10/09 01:44:35;;;;;;;2.13;1.92;;;;;;;;;;5109114;28;20023;-47
2021/10/09 01:47:01;;;;;;;2.20;1.90;;;;;;;;;;5108956;28;20036;-47
2021/10/09 01:49:27;;;;;;;2.35;2.00;;;;;;;;;;5109297;28;20027;-47
2021/10/09 01:51:53;;;;;;;2.35;1.80;;;;;;;;;;5108967;28;20032;-47
2021/10/09 01:54:19;;;;;;;2.00;1.75;;;;;;;;;;5093130;28;20024;-49
2021/10/09 01:56:45;;;;;;;2.10;1.90;;;;;;;;;;5089084;28;20024;-47
2021/10/09 01:59:11;;;;;;;2.92;2.20;;;;;;;;;;5088168;28;20404;-46
2021/10/09 02:01:38;;;;;;;2.60;2.05;;;;;;;;;;5088525;28;20059;-49
2021/10/09 02:04:04;;;;;;;2.08;1.85;;;;;;;;;;5088590;28;20122;-48
2021/10/09 02:06:30;;;;;;;2.40;2.00;;;;;;;;;;5088532;28;20445;-47
2021/10/09 02:08:57;;;;;;;2.30;2.05;;;;;;;;;;5089179;28;20020;-47
2021/10/09 02:11:26;;;;;;;2.90;2.33;;;;;;;;;;5088356;28;20020;-47
2021/10/09 02:25:13;;;;;;;2.75;2.35;;;;;;;;;;5088324;28;19930;-47
2021/10/09 02:27:39;;;;;;;3.58;2.33;;;;;;;;;;5088424;28;20023;-46
2021/10/09 02:30:05;;;;;;;3.50;3.00;;;;;;;;;;5091351;28;20038;-49
2021/10/09 02:32:31;;;;;;;2.67;2.13;;;;;;;;;;5092182;28;20051;-48
2021/10/09 02:34:57;;;;;;;2.95;2.30;;;;;;;;;;5092684;28;20024;-49
2021/10/09 02:37:23;;;;;;;3.85;2.50;;;;;;;;;;5092073;28;20031;-47
2021/10/09 02:39:49;;;;;;;2.38;2.17;;;;;;;;;;5092086;28;20024;-47
2021/10/09 02:42:15;;;;;;;2.38;2.17;;;;;;;;;;5091967;28;20467;-47
2021/10/09 02:44:41;;;;;;;3.78;2.20;;;;;;;;;;5091971;28;20028;-47
2021/10/09 02:47:07;;;;;;;3.35;2.63;;;;;;;;;;5091938;28;20047;-51
2021/10/09 02:49:33;;;;;;;3.90;2.95;;;;;;;;;;5091781;28;20482;-48
2021/10/09 02:51:59;;;;;;;2.58;2.28;;;;;;;;;;5092461;28;20465;-48
2021/10/09 02:54:25;;;;;;;3.10;2.47;;;;;;;;;;5091738;28;20099;-50
2021/10/09 02:56:51;;;;;;;3.03;2.55;;;;;;;;;;5073613;28;20155;-50
2021/10/09 02:59:17;;;;;;;2.95;2.55;;;;;;;;;;5091662;28;20528;-49
2021/10/09 03:01:43;;;;;;;2.88;2.40;;;;;;;;;;5091586;28;20032;-48
2021/10/09 03:04:09;;;;;;;2.88;2.58;;;;;;;;;;5091457;28;20122;-50
2021/10/09 03:06:35;;;;;;;3.33;2.80;;;;;;;;;;5091514;28;20106;-50
2021/10/09 03:09:01;;;;;;;3.05;2.75;;;;;;;;;;5092075;28;20032;-49
2021/10/09 03:11:27;;;;;;;3.72;2.65;;;;;;;;;;5091900;28;20521;-48
2021/10/09 03:13:53;;;;;;;3.30;2.78;;;;;;;;;;5091356;28;20032;-49
2021/10/09 03:16:19;;;;;;;3.15;2.75;;;;;;;;;;5091324;28;20024;-49
2021/10/09 03:18:45;;;;;;;3.33;2.72;;;;;;;;;;5091165;28;20429;-48
2021/10/09 03:21:11;;;;;;;3.95;2.83;;;;;;;;;;5091342;28;20024;-51
2021/10/09 03:23:37;;;;;;;3.47;3.10;;;;;;;;;;5091212;28;20122;-50
2021/10/09 03:26:04;;;;;;;4.03;3.00;;;;;;;;;;5091107;28;20038;-52
2021/10/09 03:28:30;;;;;;;4.25;3.05;;;;;;;;;;5091890;28;20020;-47
2021/10/09 03:30:56;;;;;;;3.55;3.03;;;;;;;;;;5091469;28;20449;-49
2021/10/09 03:33:22;;;;;;;4.47;3.30;;;;;;;;;;5090860;28;20107;-48
2021/10/09 03:35:48;;;;;;;4.88;2.88;;;;;;;;;;5090915;28;20031;-49
2021/10/09 03:38:14;;;;;;;4.20;3.25;;;;;;;;;;5090881;28;20024;-47
2021/10/09 03:40:44;;;;;;;4.43;3.30;;;;;;;;;;5090422;28;20031;-48
2021/10/09 03:43:16;;;;;;;4.85;3.58;;;;;;;;;;5090836;28;20078;-47
2021/10/09 03:53:28;;;;;;;4.25;3.65;;;;;;;;;;5111325;28;20422;-47
2021/10/09 03:55:54;;;;;;;3.63;3.10;;;;;;;;;;5103863;28;20020;-46
2021/10/09 03:58:20;;;;;;;4.25;3.15;;;;;;;;;;5090463;28;20060;-47
2021/10/09 04:00:46;;;;;;;4.20;3.55;;;;;;;;;;5090430;28;20028;-47
2021/10/09 04:03:12;;;;;;;5.18;4.13;;;;;;;;;;5090754;28;20066;-48
2021/10/09 04:05:38;;;;;;;3.85;3.25;;;;;;;;;;5090987;28;20024;-48
2021/10/09 04:08:08;;;;;;;5.07;3.83;;;;;;;;;;5090720;28;20028;-48
2021/10/09 04:10:38;;;;;;;4.78;3.63;;;;;;;;;;5090139;28;20020;-47
2021/10/09 04:13:04;;;;;;;5.47;3.80;;;;;;;;;;5090268;28;20024;-49
2021/10/09 04:15:30;;;;;;;5.63;3.88;;;;;;;;;;5090190;28;20016;-50
2021/10/09 04:17:56;;;;;;;6.60;4.43;;;;;;;;;;5090123;28;20091;-48
2021/10/09 04:20:23;;;;;;;6.50;4.50;;;;;;;;;;5090056;28;20028;-47
2021/10/09 04:22:50;;;;;;;6.85;4.55;;;;;;;;;;5090085;28;20538;-48
2021/10/09 04:25:16;;;;;;;5.38;3.97;;;;;;;;;;5089956;28;20062;-49
2021/10/09 04:27:42;;;;;;;5.25;4.20;;;;;;;;;;5090616;28;20086;-47
2021/10/09 04:30:08;;;;;;;5.05;3.90;;;;;;;;;;5089948;28;20110;-47
2021/10/09 04:32:34;;;;;;;5.80;4.10;;;;;;;;;;5089756;28;20031;-50
2021/10/09 04:35:00;;;;;;;7.43;4.95;;;;;;;;;;5089746;28;20103;-50
2021/10/09 04:37:26;;;;;;;6.20;4.30;;;;;;;;;;5089754;28;20027;-49
2021/10/09 04:39:52;;;;;;;6.05;4.57;;;;;;;;;;5089590;28;20020;-50
2021/10/09 04:42:19;;;;;;;6.18;3.80;;;;;;;;;;5089793;28;20024;-50
2021/10/09 04:44:45;;;;;;;5.47;3.92;;;;;;;;;;5089700;28;20050;-47
2021/10/09 04:47:11;;;;;;;5.70;4.30;;;;;;;;;;5090092;28;20119;-49
2021/10/09 04:49:37;;;;;;;5.63;4.07;;;;;;;;;;5089574;28;20027;-51
2021/10/09 04:52:03;;;;;;;6.35;4.50;;;;;;;;;;5088506;28;20028;-50
2021/10/09 04:54:29;;;;;;;5.40;3.92;;;;;;;;;;5089408;28;20016;-50
2021/10/09 04:56:55;;;;;;;6.65;4.63;;;;;;;;;;5089484;28;20532;-50
2021/10/09 04:59:21;;;;;;;6.55;4.72;;;;;;;;;;5089413;28;20099;-52
2021/10/09 05:01:47;;;;;;;5.97;4.82;;;;;;;;;;5089401;28;20030;-46
2021/10/09 05:04:13;;;;;;;6.22;4.60;;;;;;;;;;5089959;28;20507;-46
2021/10/09 05:06:39;;;;;;;6.75;4.47;;;;;;;;;;5089281;28;20024;-49
2021/10/09 05:09:07;;;;;;;7.00;4.78;;;;;;;;;;5089162;28;20110;-50
2021/10/09 05:11:33;;;;;;;5.78;4.38;;;;;;;;;;5089078;28;20119;-48
2021/10/09 05:13:59;;;;;;;6.85;4.60;;;;;;;;;;5089095;28;20098;-50
2021/10/09 05:16:25;;;;;;;5.75;4.50;;;;;;;;;;5089080;28;20028;-47
2021/10/09 05:18:51;;;;;;;6.07;4.25;;;;;;;;;;5089379;28;20020;-48
2021/10/09 05:21:17;;;;;;;6.80;4.80;;;;;;;;;;5089010;28;20028;-47
2021/10/09 05:23:43;;;;;;;7.32;4.80;;;;;;;;;;5089453;28;20058;-47
2021/10/09 05:26:09;;;;;;;7.93;4.70;;;;;;;;;;5089304;28;20428;-50
2021/10/09 05:28:47;;;;;;;7.72;4.82;;;;;;;;;;5088777;28;20126;-48
2021/10/09 05:31:22;;;;;;;7.82;5.35;;;;;;;;;;5089448;28;20077;-50
2021/10/09 05:33:49;;;;;;;5.65;4.22;;;;;;;;;;5088879;28;20038;-49
2021/10/09 05:36:15;;;;;;;6.35;4.28;;;;;;;;;;5089371;28;20024;-50
2021/10/09 05:38:41;;;;;;;7.70;4.93;;;;;;;;;;5088905;28;20107;-49
2021/10/09 05:41:07;;;;;;;6.57;4.45;;;;;;;;;;5088848;28;20584;-48
2021/10/09 05:43:33;;;;;;;6.30;4.32;;;;;;;;;;5088718;28;20028;-49
2021/10/09 05:45:59;;;;;;;6.85;4.88;;;;;;;;;;5088787;28;20032;-50
2021/10/09 05:48:26;;;;;;;7.47;4.65;;;;;;;;;;5088703;28;20118;-47
2021/10/09 05:51:03;;;;;;;10.07;6.35;;;;;;;;;;5088340;28;20021;-50
2021/10/09 05:53:46;;;;;;;8.98;6.43;;;;;;;;;;5088697;28;20047;-48
2021/10/09 06:01:50;;;;;;;9.40;6.35;;;;;;;;;;5108934;28;20036;-49
2021/10/09 07:01:11;;;;;;;;;;;;;;;;;;5112714;28;20084;-47
2021/10/09 07:03:37;;;;;;;9.95;6.35;;;;;;;;;;5111875;28;20345;-47
2021/10/09 07:06:03;;;;;;;9.20;6.20;;;;;;;;;;5111975;28;20422;-47
2021/10/09 07:08:29;;;;;;;9.32;5.88;;;;;;;;;;5111886;28;20055;-47
2021/10/09 07:10:57;;;;;;;9.20;5.97;;;;;;;;;;5111608;28;20024;-49
2021/10/09 07:13:23;;;;;;;9.32;6.18;;;;;;;;;;5111647;28;20027;-49
2021/10/09 07:15:49;;;;;;;8.23;5.78;;;;;;;;;;5111432;28;20031;-49
2021/10/09 07:18:16;;;;;;;10.75;6.38;;;;;;;;;;5111615;28;20024;-52
2021/10/09 07:20:42;;;;;;;8.13;5.40;;;;;;;;;;5111646;28;20053;-51
2021/10/09 07:23:11;;;;;;;7.78;5.30;;;;;;;;;;5111682;28;20035;-51
2021/10/09 07:25:37;;;;;;;9.32;5.85;;;;;;;;;;5111524;28;20043;-50
2021/10/09 07:28:03;;;;;;;9.38;5.70;;;;;;;;;;5111469;28;20089;-50
2021/10/09 07:30:30;;;;;;;8.93;5.40;;;;;;;;;;5111258;28;20027;-51
2021/10/09 07:32:56;;;;;;;10.20;6.28;;;;;;;;;;5111143;28;20016;-47
2021/10/09 07:35:25;;;;;;;7.82;5.32;;;;;;;;;;5111973;28;20023;-51
2021/10/09 07:37:51;;;;;;;8.05;5.22;;;;;;;;;;5111941;28;20031;-49
2021/10/09 07:40:19;;;;;;;9.20;5.63;;;;;;;;;;5111280;28;20101;-47
2021/10/09 07:42:45;;;;;;;7.57;5.13;;;;;;;;;;5111243;28;20114;-47
2021/10/09 07:45:11;;;;;;;8.75;5.43;;;;;;;;;;5111051;28;20023;-47
2021/10/09 07:47:37;;;;;;;7.60;5.45;;;;;;;;;;5111173;28;20032;-47
2021/10/09 07:50:03;;;;;;;7.78;5.53;;;;;;;;;;5111024;28;20557;-48
2021/10/09 07:52:29;;;;;;;8.70;5.55;;;;;;;;;;5111065;28;20497;-47
2021/10/09 07:54:55;;;;;;;8.52;4.68;;;;;;;;;;5111012;28;20098;-46
2021/10/09 07:57:21;;;;;;;7.00;4.65;;;;;;;;;;5111592;28;20027;-47
2021/10/09 07:59:47;;;;;;;7.38;4.97;;;;;;;;;;5092384;28;20492;-47
2021/10/09 08:02:13;;;;;;;6.97;4.45;;;;;;;;;;5110728;28;20489;-47
2021/10/09 08:04:39;;;;;;;5.60;4.15;;;;;;;;;;5110811;28;20023;-47
2021/10/09 08:07:05;;;;;;;5.65;4.32;;;;;;;;;;5092517;28;20501;-48
2021/10/09 08:09:33;;;;;;;5.97;4.28;;;;;;;;;;5111066;28;20034;-47
2021/10/09 08:11:59;;;;;;;5.40;4.25;;;;;;;;;;5110597;28;20030;-46
2021/10/09 08:14:25;;;;;;;6.90;4.22;;;;;;;;;;5110463;28;20019;-47
2021/10/09 08:16:51;;;;;;;5.43;3.95;;;;;;;;;;5111172;28;20031;-47
2021/10/09 08:19:17;;;;;;;5.20;3.80;;;;;;;;;;5110409;28;20073;-47
2021/10/09 08:21:44;;;;;;;6.70;4.40;;;;;;;;;;5110474;28;20436;-47
2021/10/09 08:40:39;;;;;;;6.57;4.95;;;;;;;;;;5075323;28;19904;-50
2021/10/09 08:43:05;;;;;;;6.90;4.95;;;;;;;;;;5110098;28;20058;-50
2021/10/09 08:45:31;;;;;;;6.53;4.68;;;;;;;;;;5109971;28;20032;-50
2021/10/09 08:47:57;;;;;;;5.57;4.15;;;;;;;;;;5110357;28;20047;-52
2021/10/09 08:50:23;;;;;;;7.88;4.72;;;;;;;;;;5110394;28;20035;-52
2021/10/09 08:53:01;;;;;;;5.82;4.07;;;;;;;;;;5109822;28;20466;-51
2021/10/09 08:55:28;;;;;;;6.13;4.63;;;;;;;;;;5109810;28;20046;-51
2021/10/09 08:58:06;;;;;;;6.15;4.53;;;;;;;;;;5110337;28;20022;-50
2021/10/09 09:00:39;;;;;;;7.45;5.50;;;;;;;;;;5109695;28;20050;-50
2021/10/09 09:03:12;;;;;;;7.07;5.20;;;;;;;;;;5109684;28;20073;-49
2021/10/09 09:05:55;;;;;;;7.43;5.18;;;;;;;;;;5109634;28;20451;-49
2021/10/09 09:27:41;;;;;;;8.57;6.03;;;;;;;;;;5109266;28;20042;-50
2021/10/09 09:33:13;;;;;;;7.38;4.85;;;;;;;;;;5108969;28;20115;-48
2021/10/09 09:35:48;;;;;;;8.68;5.45;;;;;;;;;;5090772;28;20020;-47
2021/10/09 09:41:18;;;;;;;8.25;5.13;;;;;;;;;;5108966;28;20115;-48
2021/10/09 09:43:44;;;;;;;7.18;4.70;;;;;;;;;;5108836;28;20042;-48
2021/10/09 09:46:11;;;;;;;8.35;5.63;;;;;;;;;;5108816;28;20099;-48
2021/10/09 09:48:37;;;;;;;8.32;5.28;;;;;;;;;;5108846;28;20032;-47
2021/10/09 09:51:06;;;;;;;7.82;5.45;;;;;;;;;;5108807;28;20436;-47
2021/10/09 09:53:33;;;;;;;7.65;5.50;;;;;;;;;;5108871;28;20019;-48
2021/10/09 09:55:59;;;;;;;8.93;5.07;;;;;;;;;;5109650;28;20034;-48
2021/10/09 09:58:28;;;;;;;6.53;4.80;;;;;;;;;;5109224;28;20047;-47
2021/10/09 10:00:57;;;;;;;6.72;4.63;;;;;;;;;;5108909;28;20055;-47
2021/10/09 10:03:26;;;;;;;6.80;4.40;;;;;;;;;;5108791;28;20020;-47
2021/10/09 10:05:54;;;;;;;6.80;5.03;;;;;;;;;;5108872;28;20028;-49
2021/10/09 10:08:20;;;;;;;8.45;4.90;;;;;;;;;;5108768;28;20111;-48
2021/10/09 10:10:46;;;;;;;5.95;4.20;;;;;;;;;;5108523;28;20491;-48
2021/10/09 10:13:13;;;;;;;7.00;4.57;;;;;;;;;;5108551;28;20040;-48
2021/10/09 10:15:39;;;;;;;6.65;3.95;;;;;;;;;;5108848;28;20397;-48
2021/10/09 10:18:05;;;;;;;7.18;5.20;;;;;;;;;;5108735;28;20028;-49
2021/10/09 10:20:50;;;;;;;7.90;5.32;;;;;;;;;;5109302;28;20031;-49
2021/10/09 10:23:40;;;;;;;7.93;5.47;;;;;;;;;;5108736;28;20490;-49
2021/10/09 10:26:21;;;;;;;7.05;5.13;;;;;;;;;;5108716;28;20027;-51
2021/10/09 10:28:48;;;;;;;7.57;5.47;;;;;;;;;;5108575;28;20027;-51
2021/10/09 10:31:14;;;;;;;9.20;5.82;;;;;;;;;;5108634;28;20028;-48
2021/10/09 10:33:42;;;;;;;7.55;5.00;;;;;;;;;;5108675;28;20020;-47
2021/10/09 10:36:10;;;;;;;6.25;4.43;;;;;;;;;;5108492;28;20433;-47
2021/10/09 10:38:42;;;;;;;6.80;4.80;;;;;;;;;;5108794;28;20196;-47
2021/10/09 10:41:11;;;;;;;5.65;4.10;;;;;;;;;;5108628;28;20061;-47
2021/10/09 10:46:28;;;;;;;5.95;4.38;;;;;;;;;;5108478;28;20406;-49
2021/10/09 10:49:06;;;;;;;7.05;5.13;;;;;;;;;;5108542;28;20077;-48
2021/10/09 10:56:59;;;;;;;10.13;6.35;;;;;;;;;;5112497;28;20666;-47
2021/10/09 10:59:30;;;;;;;9.48;6.07;;;;;;;;;;5112114;28;20026;-48
2021/10/09 11:02:09;;;;;;;9.30;6.15;;;;;;;;;;5112013;28;20035;-49
2021/10/09 11:04:36;;;;;;;9.07;5.78;;;;;;;;;;5111867;28;20023;-48
2021/10/09 11:07:02;;;;;;;8.73;5.72;;;;;;;;;;5112627;28;20462;-48
2021/10/09 11:09:29;;;;;;;9.23;5.95;;;;;;;;;;5111707;28;20536;-48
2021/10/09 11:11:55;;;;;;;8.77;5.75;;;;;;;;;;5111699;28;20095;-47
2021/10/09 11:14:22;;;;;;;8.48;6.10;;;;;;;;;;5111779;28;20095;-48
2021/10/09 11:16:48;;;;;;;8.93;5.70;;;;;;;;;;5112140;28;20032;-48
2021/10/09 11:19:14;;;;;;;9.95;6.70;;;;;;;;;;5111771;28;20027;-49
2021/10/09 11:21:53;;;;;;;8.73;6.32;;;;;;;;;;5111548;28;20036;-51
2021/10/09 11:24:19;;;;;;;9.18;6.07;;;;;;;;;;5111559;28;20509;-47
2021/10/09 11:26:52;;;;;;;9.93;6.88;;;;;;;;;;5111530;28;20028;-48
2021/10/09 11:29:18;;;;;;;9.02;6.35;;;;;;;;;;5092989;28;20414;-47
2021/10/09 11:31:45;;;;;;;7.93;5.93;;;;;;;;;;5111339;28;20028;-50
2021/10/09 11:34:11;;;;;;;8.23;6.05;;;;;;;;;;5111352;28;20103;-48
2021/10/09 11:36:38;;;;;;;10.40;6.90;;;;;;;;;;5111302;28;20024;-48
2021/10/09 11:39:14;;;;;;;9.50;6.55;;;;;;;;;;5111862;28;20027;-48
2021/10/09 11:41:42;;;;;;;9.90;6.72;;;;;;;;;;5103681;28;20032;-48
2021/10/09 11:44:20;;;;;;;11.10;7.15;;;;;;;;;;5092577;28;20498;-53
2021/10/09 11:55:26;;;;;;;11.75;6.88;;;;;;;;;;5111731;28;20578;-48
2021/10/09 11:57:52;;;;;;;9.50;6.18;;;;;;;;;;5110987;28;20024;-48
2021/10/09 12:00:31;;;;;;;7.35;5.45;;;;;;;;;;5110299;28;20015;-47
2021/10/09 12:03:16;;;;;;;9.57;6.88;;;;;;;;;;5110904;28;20028;-47
2021/10/09 12:05:55;;;;;;;11.25;7.88;;;;;;;;;;5110767;28;20024;-48
2021/10/09 12:08:28;;;;;;;9.93;7.05;;;;;;;;;;5110847;28;20026;-47
2021/10/09 12:11:10;;;;;;;9.82;6.80;;;;;;;;;;5110706;28;20106;-47
2021/10/09 12:13:54;;;;;;;8.20;5.80;;;;;;;;;;5111226;28;20045;-48
2021/10/09 12:16:20;;;;;;;;;;;;;;;;;;5110916;28;20099;-47
2021/10/09 12:18:47;;;;;;;8.68;6.13;;;;;;;;;;5110674;28;19998;-48
2021/10/09 12:21:13;;;;;;;7.15;5.18;;;;;;;;;;5110553;28;20057;-48
2021/10/09 12:23:39;;;;;;;7.07;5.18;;;;;;;;;;5110499;28;20368;-47
2021/10/09 12:26:12;;;;;;;7.10;5.03;;;;;;;;;;5111010;28;20175;-47
2021/10/09 12:29:01;;;;;;;5.75;4.28;;;;;;;;;;5110791;28;20114;-48
2021/10/09 12:31:31;;;;;;;6.30;4.50;;;;;;;;;;5097174;28;20039;-48
2021/10/09 12:33:57;;;;;;;5.50;4.13;;;;;;;;;;5110276;28;20019;-51
2021/10/09 12:36:41;;;;;;;5.00;3.95;;;;;;;;;;5110058;28;20036;-49
2021/10/09 12:39:07;;;;;;;;;;;;;;;;;;5110719;28;20462;-50
2021/10/09 12:41:33;;;;;;;5.50;4.53;;;;;;;;;;5110122;28;19987;-50
2021/10/09 12:43:59;;;;;;;6.75;4.68;;;;;;;;;;5110127;28;20363;-49
2021/10/09 12:46:26;;;;;;;8.30;5.60;;;;;;;;;;5109898;28;20478;-49
2021/10/09 12:48:52;;;;;;;6.82;5.20;;;;;;;;;;5109978;28;20031;-52
2021/10/09 12:51:18;;;;;;;5.00;3.88;;;;;;;;;;5109877;28;20020;-49
2021/10/09 12:53:44;;;;;;;6.97;4.78;;;;;;;;;;5109662;28;20027;-48
2021/10/09 12:56:10;;;;;;;7.13;5.22;;;;;;;;;;5110385;28;20406;-53
2021/10/09 12:58:36;;;;;;;7.28;5.07;;;;;;;;;;5110384;28;20394;-48
2021/10/09 13:01:04;;;;;;;7.95;5.90;;;;;;;;;;5109727;28;20081;-48
2021/10/09 13:03:30;;;;;;;7.40;5.38;;;;;;;;;;5109729;28;20024;-48
2021/10/09 13:05:56;;;;;;;7.72;5.40;;;;;;;;;;5091413;28;20020;-49
2021/10/09 13:08:22;;;;;;;7.82;5.15;;;;;;;;;;5109572;28;20628;-49
2021/10/09 13:10:50;;;;;;;6.20;4.75;;;;;;;;;;5109348;28;20506;-47
2021/10/09 13:13:16;;;;;;;8.75;6.28;;;;;;;;;;5109202;28;20023;-48
2021/10/09 13:15:42;;;;;;;8.68;5.93;;;;;;;;;;5109247;28;20024;-48
2021/10/09 13:18:08;;;;;;;7.80;5.55;;;;;;;;;;5110475;28;20019;-49
2021/10/09 13:20:37;;;;;;;8.82;5.85;;;;;;;;;;5109211;28;20107;-47
2021/10/09 13:23:03;;;;;;;7.80;5.78;;;;;;;;;;5109316;28;20486;-48
2021/10/09 13:25:29;;;;;;;7.78;5.43;;;;;;;;;;5109635;28;20020;-47
2021/10/09 13:27:56;;;;;;;7.00;5.50;;;;;;;;;;5109413;28;20024;-48
2021/10/09 13:30:22;;;;;;;5.00;3.95;;;;;;;;;;5109102;28;20057;-47
2021/10/09 13:32:48;;;;;;;5.40;4.30;;;;;;;;;;5109171;28;20387;-47
2021/10/09 13:35:15;;;;;;;4.35;3.35;;;;;;;;;;5108977;28;20043;-48
2021/10/09 13:38:09;;;;;;;6.43;4.28;;;;;;;;;;5109807;28;20102;-48
2021/10/09 13:40:35;;;;;;;5.90;3.90;;;;;;;;;;5105966;28;20059;-47
2021/10/09 13:43:01;;;;;;;9.07;5.78;;;;;;;;;;5109020;28;20024;-47
2021/10/09 13:45:27;;;;;;;6.78;4.80;;;;;;;;;;5108959;28;20054;-48
2021/10/09 13:47:53;;;;;;;6.05;4.60;;;;;;;;;;5108917;28;20023;-47
2021/10/09 13:50:21;;;;;;;7.40;5.30;;;;;;;;;;5108905;28;20028;-47
2021/10/09 13:52:47;;;;;;;6.47;4.32;;;;;;;;;;5108966;28;20026;-48
2021/10/09 13:55:13;;;;;;;6.20;4.47;;;;;;;;;;5109513;28;20043;-48
2021/10/09 13:57:39;;;;;;;5.72;4.07;;;;;;;;;;5109547;28;20019;-48
2021/10/09 14:00:06;;;;;;;6.28;4.55;;;;;;;;;;5108926;28;20027;-48
2021/10/09 14:02:32;;;;;;;6.18;4.28;;;;;;;;;;5109433;28;20424;-47
2021/10/09 14:04:59;;;;;;;5.60;4.60;;;;;;;;;;5108925;28;20389;-48
2021/10/09 14:07:25;;;;;;;5.72;4.07;;;;;;;;;;5090614;28;20024;-48
2021/10/09 14:09:51;;;;;;;5.45;4.22;;;;;;;;;;5108928;28;20065;-47
2021/10/09 14:12:17;;;;;;;4.32;3.65;;;;;;;;;;5108837;28;20027;-48
2021/10/09 14:14:43;;;;;;;4.82;4.03;;;;;;;;;;5109375;28;20028;-47
2021/10/09 14:17:09;;;;;;;5.15;3.72;;;;;;;;;;5108845;28;20019;-47
2021/10/09 14:19:35;;;;;;;5.05;4.07;;;;;;;;;;5108718;28;20031;-47
2021/10/09 14:22:02;;;;;;;6.43;4.43;;;;;;;;;;5108770;28;20024;-47
2021/10/09 14:24:28;;;;;;;6.45;4.78;;;;;;;;;;5111014;28;20028;-48
2021/10/09 14:26:54;;;;;;;6.25;4.50;;;;;;;;;;5112745;28;20027;-48
2021/10/09 14:29:20;;;;;;;6.07;4.70;;;;;;;;;;5112559;28;20036;-47
2021/10/09 14:31:46;;;;;;;6.78;5.07;;;;;;;;;;5112727;28;20023;-48
2021/10/09 14:34:12;;;;;;;6.82;5.18;;;;;;;;;;5113309;28;20533;-48
2021/10/09 14:36:38;;;;;;;7.72;5.40;;;;;;;;;;5112575;28;20027;-49
2021/10/09 14:39:04;;;;;;;6.47;5.25;;;;;;;;;;5112455;28;20035;-47
2021/10/09 14:41:30;;;;;;;6.85;5.32;;;;;;;;;;5112597;28;20020;-48
2021/10/09 14:43:56;;;;;;;6.88;5.20;;;;;;;;;;5112372;28;20055;-48
2021/10/09 14:48:49;;;;;;;8.13;5.95;;;;;;;;;;5112466;28;20563;-47
2021/10/09 14:54:09;;;;;;;8.48;5.78;;;;;;;;;;5112347;28;20031;-48
2021/10/09 15:02:31;;;;;;;6.88;5.32;;;;;;;;;;5111824;28;20122;-48
2021/10/09 15:16:31;;;;;;;6.32;5.07;;;;;;;;;;5111998;28;20069;-47
2021/10/09 15:18:56;;;;;;;6.70;5.35;;;;;;;;;;5111439;28;20028;-47
2021/10/09 15:21:23;;;;;;;8.35;6.00;;;;;;;;;;5111594;28;20487;-48
2021/10/09 15:23:49;;;;;;;6.13;4.93;;;;;;;;;;5111940;28;20080;-48
2021/10/09 15:26:15;;;;;;;7.35;5.22;;;;;;;;;;5112333;28;20470;-49
2021/10/09 15:28:41;;;;;;;7.03;5.63;;;;;;;;;;5111383;28;20039;-47
2021/10/09 15:31:11;;;;;;;6.85;5.20;;;;;;;;;;5111442;28;20048;-47
2021/10/09 15:33:37;;;;;;;7.13;5.38;;;;;;;;;;5111352;28;20031;-47
2021/10/09 15:36:03;;;;;;;6.22;5.03;;;;;;;;;;5110621;28;20041;-49
2021/10/09 15:38:29;;;;;;;6.40;5.15;;;;;;;;;;5111247;28;20031;-48
2021/10/09 15:40:55;;;;;;;5.78;4.97;;;;;;;;;;5111241;28;20451;-49
2021/10/09 15:43:21;;;;;;;7.15;5.30;;;;;;;;;;5111300;28;20024;-51
2021/10/09 15:45:47;;;;;;;5.65;4.80;;;;;;;;;;5111693;28;20023;-51
2021/10/09 15:48:13;;;;;;;6.13;4.80;;;;;;;;;;5111115;28;20088;-50
2021/10/09 15:50:40;;;;;;;5.43;4.57;;;;;;;;;;5110859;28;20132;-47
2021/10/09 15:53:10;;;;;;;6.22;4.60;;;;;;;;;;5111214;28;20028;-48
2021/10/09 15:55:36;;;;;;;5.22;4.15;;;;;;;;;;5111097;28;20393;-47
2021/10/09 15:58:02;;;;;;;7.60;4.90;;;;;;;;;;5111010;28;20070;-48
2021/10/09 16:00:28;;;;;;;6.07;4.88;;;;;;;;;;5110795;28;20019;-47
2021/10/09 16:02:54;;;;;;;6.35;4.90;;;;;;;;;;5092472;28;20047;-47
2021/10/09 16:05:20;;;;;;;6.70;4.75;;;;;;;;;;5111304;28;20393;-48
2021/10/09 16:07:47;;;;;;;6.95;5.10;;;;;;;;;;5111397;28;20080;-48
2021/10/09 16:10:13;;;;;;;6.65;4.80;;;;;;;;;;5111089;28;20462;-47
2021/10/09 16:12:39;;;;;;;6.93;4.90;;;;;;;;;;5110593;28;20038;-47
2021/10/09 16:15:05;;;;;;;5.35;4.45;;;;;;;;;;5110698;28;20051;-47
2021/10/09 16:17:32;;;;;;;5.50;4.43;;;;;;;;;;5110640;28;20020;-47
2021/10/09 16:19:58;;;;;;;5.88;4.35;;;;;;;;;;5111035;28;20028;-49
2021/10/09 16:22:25;;;;;;;5.95;4.38;;;;;;;;;;5110492;28;20051;-52
2021/10/09 16:24:51;;;;;;;5.50;4.55;;;;;;;;;;5111160;28;20047;-51
2021/10/09 16:27:18;;;;;;;5.85;4.75;;;;;;;;;;5110867;28;20405;-48
2021/10/09 16:29:44;;;;;;;5.43;4.50;;;;;;;;;;5110335;28;20051;-48
2021/10/09 16:32:10;;;;;;;6.65;4.60;;;;;;;;;;5110230;28;20039;-51
2021/10/09 16:34:36;;;;;;;5.68;4.50;;;;;;;;;;5110163;28;20504;-49
2021/10/09 16:37:03;;;;;;;6.88;5.18;;;;;;;;;;5110281;28;20478;-48
2021/10/09 16:39:29;;;;;;;5.97;4.35;;;;;;;;;;5110188;28;20026;-47
2021/10/09 16:41:56;;;;;;;6.72;5.07;;;;;;;;;;5109976;28;20099;-48
2021/10/09 16:44:23;;;;;;;5.22;4.32;;;;;;;;;;5110515;28;20372;-48
2021/10/09 16:46:49;;;;;;;6.15;4.82;;;;;;;;;;5109902;28;20023;-47
2021/10/09 16:49:16;;;;;;;6.65;5.22;;;;;;;;;;5109578;28;20035;-48
2021/10/09 16:51:43;;;;;;;8.27;5.10;;;;;;;;;;5109753;28;20023;-48
2021/10/09 16:54:09;;;;;;;6.13;4.40;;;;;;;;;;5109908;28;20028;-48
2021/10/09 16:56:36;;;;;;;4.90;4.05;;;;;;;;;;5109847;28;20027;-47
2021/10/09 16:59:02;;;;;;;5.57;4.43;;;;;;;;;;5091507;28;20027;-51
2021/10/09 17:01:29;;;;;;;6.15;4.38;;;;;;;;;;5109664;28;20406;-50
2021/10/09 17:03:55;;;;;;;6.35;5.03;;;;;;;;;;5109677;28;20054;-47
2021/10/09 17:06:21;;;;;;;6.63;4.93;;;;;;;;;;5110504;28;20027;-47
2021/10/09 17:08:47;;;;;;;5.90;4.47;;;;;;;;;;5109657;28;20020;-47
2021/10/09 17:11:13;;;;;;;7.25;5.00;;;;;;;;;;5109922;28;20024;-48
2021/10/09 17:13:39;;;;;;;6.43;4.85;;;;;;;;;;5109967;28;20016;-48
2021/10/09 17:16:05;;;;;;;6.70;5.07;;;;;;;;;;5109447;28;20019;-48
2021/10/09 17:18:32;;;;;;;6.65;4.88;;;;;;;;;;5109383;28;20024;-48
2021/10/09 17:20:58;;;;;;;5.40;4.47;;;;;;;;;;5109340;28;20053;-48
2021/10/09 17:23:24;;;;;;;6.18;4.70;;;;;;;;;;5109908;28;20031;-49
2021/10/09 17:25:50;;;;;;;7.53;5.22;;;;;;;;;;5109949;28;20023;-47
2021/10/09 17:28:16;;;;;;;9.32;7.05;;;;;;;;;;5109342;28;20024;-48